sensor_id;sensor_type;location;lat;lon;timestamp;pressure;altitude;pressure_sealevel;temperature;humidity
8059;BME280;4072;42.668;23.396;2023-06-24T00:00:48;95109.81;;;23.32;100.00
8059;BME280;4072;42.668;23.396;2023-06-24T00:03:20;95107.91;;;23.40;100.00
8059;BME280;4072;42.668;23.396;2023-06-24T00:05:49;95112.25;;;23.36;100.00
8059;BME280;4072;42.668;23.396;2023-06-24T00:08:18;95067.56;;;23.24;100.00
8059;BME280;4072;42.668;23.396;2023-06-24T00:10:47;95114.63;;;23.45;100.00
8059;BME280;4072;42.668;23.396;2023-06-24T00:13:16;95100.50;;;23.35;100.00
8059;BME280;4072;42.668;23.396;2023-06-24T00:15:44;95055.53;;;23.09;100.00
8059;BME280;4072;42.668;23.396;2023-06-24T00:18:14;95102.25;;;23.33;100.00
8059;BME280;4072;42.668;23.396;2023-06-24T00:20:42;95109.50;;;23.36;100.00
8059;BME280;4072;42.668;23.396;2023-06-24T00:23:14;95104.50;;;23.34;100.00
8059;BME280;4072;42.668;23.396;2023-06-24T00:25:45;95103.97;;;23.23;100.00
8059;BME280;4072;42.668;23.396;2023-06-24T00:28:13;95075.84;;;22.92;100.00
8059;BME280;4072;42.668;23.396;2023-06-24T00:30:41;95103.78;;;23.02;100.00
8059;BME280;4072;42.668;23.396;2023-06-24T00:33:10;95107.53;;;23.18;100.00
8059;BME280;4072;42.668;23.396;2023-06-24T00:35:41;95113.63;;;23.29;100.00
8059;BME280;4072;42.668;23.396;2023-06-24T00:38:09;95114.69;;;23.26;100.00
8059;BME280;4072;42.668;23.396;2023-06-24T00:40:38;95110.03;;;23.34;100.00
8059;BME280;4072;42.668;23.396;2023-06-24T00:43:07;95084.66;;;23.23;100.00
8059;BME280;4072;42.668;23.396;2023-06-24T00:45:35;95114.38;;;23.43;100.00
8059;BME280;4072;42.668;23.396;2023-06-24T00:48:05;95108.47;;;23.20;100.00
8059;BME280;4072;42.668;23.396;2023-06-24T00:50:34;95099.66;;;23.09;100.00
8059;BME280;4072;42.668;23.396;2023-06-24T00:53:05;95107.94;;;23.09;100.00
8059;BME280;4072;42.668;23.396;2023-06-24T00:55:34;95097.97;;;23.19;100.00
8059;BME280;4072;42.668;23.396;2023-06-24T00:58:02;95106.84;;;22.99;100.00
8059;BME280;4072;42.668;23.396;2023-06-24T01:00:31;95092.41;;;22.92;100.00
8059;BME280;4072;42.668;23.396;2023-06-24T01:03:01;95096.38;;;23.10;100.00
8059;BME280;4072;42.668;23.396;2023-06-24T01:05:31;95101.16;;;23.10;100.00
8059;BME280;4072;42.668;23.396;2023-06-24T01:08:02;95088.34;;;22.93;100.00
8059;BME280;4072;42.668;23.396;2023-06-24T01:10:33;95091.56;;;22.98;100.00
8059;BME280;4072;42.668;23.396;2023-06-24T01:13:03;95073.75;;;22.99;100.00
8059;BME280;4072;42.668;23.396;2023-06-24T01:15:31;95089.91;;;23.21;100.00
8059;BME280;4072;42.668;23.396;2023-06-24T01:18:06;95098.53;;;23.17;100.00
8059;BME280;4072;42.668;23.396;2023-06-24T01:20:42;95019.00;;;22.58;100.00
8059;BME280;4072;42.668;23.396;2023-06-24T01:23:54;95075.41;;;22.88;100.00
8059;BME280;4072;42.668;23.396;2023-06-24T01:32:26;95079.56;;;22.45;100.00
8059;BME280;4072;42.668;23.396;2023-06-24T01:34:59;95083.16;;;22.58;100.00
8059;BME280;4072;42.668;23.396;2023-06-24T01:37:32;95061.09;;;22.58;100.00
8059;BME280;4072;42.668;23.396;2023-06-24T01:40:10;95084.91;;;22.74;100.00
8059;BME280;4072;42.668;23.396;2023-06-24T01:42:41;95083.63;;;22.62;100.00
8059;BME280;4072;42.668;23.396;2023-06-24T01:45:13;95080.38;;;22.58;100.00
8059;BME280;4072;42.668;23.396;2023-06-24T01:47:46;95073.53;;;22.46;100.00
8059;BME280;4072;42.668;23.396;2023-06-24T01:50:20;95100.66;;;22.42;100.00
8059;BME280;4072;42.668;23.396;2023-06-24T01:52:52;95094.03;;;22.32;100.00
8059;BME280;4072;42.668;23.396;2023-06-24T01:55:23;95117.34;;;22.31;100.00
8059;BME280;4072;42.668;23.396;2023-06-24T01:57:54;95105.13;;;22.27;100.00
8059;BME280;4072;42.668;23.396;2023-06-24T02:00:25;95107.38;;;22.28;100.00
8059;BME280;4072;42.668;23.396;2023-06-24T02:02:55;95104.84;;;22.30;100.00
8059;BME280;4072;42.668;23.396;2023-06-24T02:05:26;95101.88;;;22.28;100.00
8059;BME280;4072;42.668;23.396;2023-06-24T02:07:57;95104.38;;;22.26;100.00
8059;BME280;4072;42.668;23.396;2023-06-24T02:10:26;95117.06;;;22.16;100.00
8059;BME280;4072;42.668;23.396;2023-06-24T02:12:55;95119.06;;;22.16;100.00
8059;BME280;4072;42.668;23.396;2023-06-24T02:15:26;95108.56;;;22.14;100.00
8059;BME280;4072;42.668;23.396;2023-06-24T02:17:57;95114.06;;;22.14;100.00
8059;BME280;4072;42.668;23.396;2023-06-24T02:20:26;95122.28;;;22.20;100.00
8059;BME280;4072;42.668;23.396;2023-06-24T02:22:56;95115.41;;;22.26;100.00
8059;BME280;4072;42.668;23.396;2023-06-24T02:25:27;95112.72;;;22.21;100.00
8059;BME280;4072;42.668;23.396;2023-06-24T02:27:56;95119.13;;;22.10;100.00
8059;BME280;4072;42.668;23.396;2023-06-24T02:30:25;95129.72;;;22.06;100.00
8059;BME280;4072;42.668;23.396;2023-06-24T02:32:54;95136.56;;;22.18;100.00
8059;BME280;4072;42.668;23.396;2023-06-24T02:35:25;95157.44;;;22.32;100.00
8059;BME280;4072;42.668;23.396;2023-06-24T02:37:53;95163.09;;;22.40;100.00
8059;BME280;4072;42.668;23.396;2023-06-24T02:40:22;95163.09;;;22.40;100.00
8059;BME280;4072;42.668;23.396;2023-06-24T02:42:53;95170.22;;;22.11;100.00
8059;BME280;4072;42.668;23.396;2023-06-24T02:45:22;95178.13;;;22.20;100.00
8059;BME280;4072;42.668;23.396;2023-06-24T02:47:51;95172.63;;;22.20;100.00
8059;BME280;4072;42.668;23.396;2023-06-24T02:50:21;95176.94;;;22.16;100.00
8059;BME280;4072;42.668;23.396;2023-06-24T02:52:54;95164.56;;;22.04;100.00
8059;BME280;4072;42.668;23.396;2023-06-24T02:55:25;95170.59;;;22.02;100.00
8059;BME280;4072;42.668;23.396;2023-06-24T02:57:54;95160.38;;;21.97;100.00
8059;BME280;4072;42.668;23.396;2023-06-24T03:00:24;95166.91;;;21.94;100.00
8059;BME280;4072;42.668;23.396;2023-06-24T03:02:52;95190.56;;;21.84;100.00
8059;BME280;4072;42.668;23.396;2023-06-24T03:05:22;95188.16;;;21.75;100.00
8059;BME280;4072;42.668;23.396;2023-06-24T03:07:54;95181.47;;;21.65;100.00
8059;BME280;4072;42.668;23.396;2023-06-24T03:10:24;95186.31;;;21.54;100.00
8059;BME280;4072;42.668;23.396;2023-06-24T03:12:52;95191.56;;;21.57;100.00
8059;BME280;4072;42.668;23.396;2023-06-24T03:15:21;95179.00;;;21.62;100.00
8059;BME280;4072;42.668;23.396;2023-06-24T03:17:53;95182.16;;;21.71;100.00
8059;BME280;4072;42.668;23.396;2023-06-24T03:20:23;95171.13;;;21.77;100.00
8059;BME280;4072;42.668;23.396;2023-06-24T03:22:53;95150.13;;;21.74;100.00
8059;BME280;4072;42.668;23.396;2023-06-24T03:25:22;95185.41;;;21.99;100.00
8059;BME280;4072;42.668;23.396;2023-06-24T03:27:50;95182.78;;;22.07;100.00
8059;BME280;4072;42.668;23.396;2023-06-24T03:30:19;95192.38;;;22.00;100.00
8059;BME280;4072;42.668;23.396;2023-06-24T03:32:48;95187.59;;;21.82;100.00
8059;BME280;4072;42.668;23.396;2023-06-24T03:35:17;95203.69;;;21.73;100.00
8059;BME280;4072;42.668;23.396;2023-06-24T03:37:46;95212.31;;;21.58;100.00
8059;BME280;4072;42.668;23.396;2023-06-24T03:40:16;95212.69;;;21.73;100.00
8059;BME280;4072;42.668;23.396;2023-06-24T03:42:47;95215.69;;;21.75;100.00
8059;BME280;4072;42.668;23.396;2023-06-24T03:45:15;95222.88;;;21.84;100.00
8059;BME280;4072;42.668;23.396;2023-06-24T03:47:44;95233.78;;;21.95;100.00
8059;BME280;4072;42.668;23.396;2023-06-24T03:50:13;95215.34;;;22.08;100.00
8059;BME280;4072;42.668;23.396;2023-06-24T03:52:41;95235.31;;;22.14;100.00
8059;BME280;4072;42.668;23.396;2023-06-24T03:55:10;95217.03;;;22.35;100.00
8059;BME280;4072;42.668;23.396;2023-06-24T03:57:40;95221.41;;;22.49;100.00
8059;BME280;4072;42.668;23.396;2023-06-24T04:00:09;95220.47;;;22.41;100.00
8059;BME280;4072;42.668;23.396;2023-06-24T04:02:43;95215.94;;;22.44;100.00
8059;BME280;4072;42.668;23.396;2023-06-24T04:05:12;95213.94;;;22.63;100.00
8059;BME280;4072;42.668;23.396;2023-06-24T04:07:41;95210.06;;;22.71;100.00
8059;BME280;4072;42.668;23.396;2023-06-24T04:10:14;95214.25;;;22.78;100.00
8059;BME280;4072;42.668;23.396;2023-06-24T04:12:43;95220.13;;;22.88;100.00
8059;BME280;4072;42.668;23.396;2023-06-24T04:15:12;95225.84;;;23.08;100.00
8059;BME280;4072;42.668;23.396;2023-06-24T04:17:40;95232.69;;;23.39;100.00
8059;BME280;4072;42.668;23.396;2023-06-24T04:20:08;95222.63;;;23.54;100.00
8059;BME280;4072;42.668;23.396;2023-06-24T04:22:37;95206.72;;;23.73;100.00
8059;BME280;4072;42.668;23.396;2023-06-24T04:25:07;95213.69;;;23.93;100.00
8059;BME280;4072;42.668;23.396;2023-06-24T04:27:36;95208.38;;;24.21;100.00
8059;BME280;4072;42.668;23.396;2023-06-24T04:30:06;95203.03;;;24.49;100.00
8059;BME280;4072;42.668;23.396;2023-06-24T04:32:35;95204.25;;;24.87;100.00
8059;BME280;4072;42.668;23.396;2023-06-24T04:35:04;95195.41;;;25.22;100.00
8059;BME280;4072;42.668;23.396;2023-06-24T04:37:32;95201.56;;;25.28;100.00
8059;BME280;4072;42.668;23.396;2023-06-24T04:40:01;95207.13;;;25.48;100.00
8059;BME280;4072;42.668;23.396;2023-06-24T04:42:29;95201.91;;;25.45;100.00
8059;BME280;4072;42.668;23.396;2023-06-24T04:44:58;95204.03;;;25.80;100.00
8059;BME280;4072;42.668;23.396;2023-06-24T04:47:28;95210.41;;;25.88;100.00
8059;BME280;4072;42.668;23.396;2023-06-24T04:49:56;95213.41;;;25.70;100.00
8059;BME280;4072;42.668;23.396;2023-06-24T04:52:25;95207.31;;;25.30;100.00
8059;BME280;4072;42.668;23.396;2023-06-24T04:54:53;95222.09;;;25.74;100.00
8059;BME280;4072;42.668;23.396;2023-06-24T04:57:26;95217.31;;;26.23;100.00
8059;BME280;4072;42.668;23.396;2023-06-24T04:59:55;95218.75;;;26.16;100.00
8059;BME280;4072;42.668;23.396;2023-06-24T05:02:24;95214.28;;;26.13;100.00
8059;BME280;4072;42.668;23.396;2023-06-24T05:04:54;95203.78;;;26.19;100.00
8059;BME280;4072;42.668;23.396;2023-06-24T05:07:22;95215.16;;;26.08;100.00
8059;BME280;4072;42.668;23.396;2023-06-24T05:09:50;95210.47;;;26.59;100.00
8059;BME280;4072;42.668;23.396;2023-06-24T05:12:19;95179.66;;;26.70;100.00
8059;BME280;4072;42.668;23.396;2023-06-24T05:14:49;95210.97;;;26.93;100.00
8059;BME280;4072;42.668;23.396;2023-06-24T05:17:19;95207.69;;;27.02;100.00
8059;BME280;4072;42.668;23.396;2023-06-24T05:19:47;95196.22;;;27.06;100.00
8059;BME280;4072;42.668;23.396;2023-06-24T05:22:18;95158.06;;;26.91;100.00
8059;BME280;4072;42.668;23.396;2023-06-24T05:24:46;95177.34;;;27.04;100.00
8059;BME280;4072;42.668;23.396;2023-06-24T05:27:15;95200.75;;;27.46;100.00
8059;BME280;4072;42.668;23.396;2023-06-24T05:29:44;95209.28;;;27.63;100.00
8059;BME280;4072;42.668;23.396;2023-06-24T05:32:13;95170.00;;;27.52;100.00
8059;BME280;4072;42.668;23.396;2023-06-24T05:34:44;95208.56;;;27.93;100.00
8059;BME280;4072;42.668;23.396;2023-06-24T05:37:13;95212.25;;;28.18;100.00
8059;BME280;4072;42.668;23.396;2023-06-24T05:39:43;95210.38;;;28.43;100.00
8059;BME280;4072;42.668;23.396;2023-06-24T05:42:11;95218.84;;;28.68;100.00
8059;BME280;4072;42.668;23.396;2023-06-24T05:44:40;95216.69;;;28.91;100.00
8059;BME280;4072;42.668;23.396;2023-06-24T05:47:08;95217.66;;;28.86;100.00
8059;BME280;4072;42.668;23.396;2023-06-24T05:49:36;95212.72;;;29.09;100.00
8059;BME280;4072;42.668;23.396;2023-06-24T05:52:06;95192.31;;;28.99;100.00
8059;BME280;4072;42.668;23.396;2023-06-24T05:54:35;95209.78;;;29.07;100.00
8059;BME280;4072;42.668;23.396;2023-06-24T05:57:06;95196.84;;;28.87;100.00
8059;BME280;4072;42.668;23.396;2023-06-24T05:59:34;95191.97;;;28.95;100.00
8059;BME280;4072;42.668;23.396;2023-06-24T06:02:03;95194.41;;;28.91;100.00
8059;BME280;4072;42.668;23.396;2023-06-24T06:04:32;95192.28;;;29.14;100.00
8059;BME280;4072;42.668;23.396;2023-06-24T06:07:00;95187.03;;;29.74;92.82
8059;BME280;4072;42.668;23.396;2023-06-24T06:09:29;95185.91;;;29.77;93.07
8059;BME280;4072;42.668;23.396;2023-06-24T06:11:58;95188.69;;;30.02;88.63
8059;BME280;4072;42.668;23.396;2023-06-24T06:14:28;95186.38;;;30.08;87.62
8059;BME280;4072;42.668;23.396;2023-06-24T06:16:56;95183.22;;;29.87;87.11
8059;BME280;4072;42.668;23.396;2023-06-24T06:19:25;95181.53;;;29.67;88.71
8059;BME280;4072;42.668;23.396;2023-06-24T06:21:54;95185.56;;;29.73;86.97
8059;BME280;4072;42.668;23.396;2023-06-24T06:24:22;95187.03;;;28.86;97.04
8059;BME280;4072;42.668;23.396;2023-06-24T06:26:50;95167.88;;;28.90;97.90
8059;BME280;4072;42.668;23.396;2023-06-24T06:29:18;95192.16;;;29.36;97.00
8059;BME280;4072;42.668;23.396;2023-06-24T06:31:48;95195.06;;;29.95;92.16
8059;BME280;4072;42.668;23.396;2023-06-24T06:34:17;95180.84;;;30.42;89.47
8059;BME280;4072;42.668;23.396;2023-06-24T06:36:46;95192.84;;;30.52;89.54
8059;BME280;4072;42.668;23.396;2023-06-24T06:39:15;95139.63;;;30.33;88.39
8059;BME280;4072;42.668;23.396;2023-06-24T06:41:44;95187.09;;;30.84;87.12
8059;BME280;4072;42.668;23.396;2023-06-24T06:44:12;95194.28;;;31.04;86.28
8059;BME280;4072;42.668;23.396;2023-06-24T06:46:40;95202.81;;;31.06;87.38
8059;BME280;4072;42.668;23.396;2023-06-24T06:49:10;95199.03;;;31.38;82.66
8059;BME280;4072;42.668;23.396;2023-06-24T06:51:38;95206.13;;;31.39;83.13
8059;BME280;4072;42.668;23.396;2023-06-24T06:54:06;95197.13;;;31.14;80.62
8059;BME280;4072;42.668;23.396;2023-06-24T06:56:35;95203.81;;;31.01;83.46
8059;BME280;4072;42.668;23.396;2023-06-24T06:59:04;95197.00;;;31.21;82.91
8059;BME280;4072;42.668;23.396;2023-06-24T07:01:32;95198.63;;;31.41;82.21
8059;BME280;4072;42.668;23.396;2023-06-24T07:04:01;95204.72;;;31.83;75.96
8059;BME280;4072;42.668;23.396;2023-06-24T07:06:30;95207.50;;;31.83;73.89
8059;BME280;4072;42.668;23.396;2023-06-24T07:09:00;95207.56;;;31.66;73.05
8059;BME280;4072;42.668;23.396;2023-06-24T07:11:28;95200.22;;;30.91;76.57
8059;BME280;4072;42.668;23.396;2023-06-24T07:13:57;95205.53;;;30.97;77.13
8059;BME280;4072;42.668;23.396;2023-06-24T07:16:25;95207.84;;;30.91;80.11
8059;BME280;4072;42.668;23.396;2023-06-24T07:18:55;95205.25;;;31.19;79.29
8059;BME280;4072;42.668;23.396;2023-06-24T07:21:23;95215.75;;;31.55;74.34
8059;BME280;4072;42.668;23.396;2023-06-24T07:23:53;95212.94;;;31.81;73.87
8059;BME280;4072;42.668;23.396;2023-06-24T07:26:21;95205.75;;;32.33;73.31
8059;BME280;4072;42.668;23.396;2023-06-24T07:28:49;95207.50;;;32.38;70.40
8059;BME280;4072;42.668;23.396;2023-06-24T07:31:34;95204.06;;;32.30;70.02
8059;BME280;4072;42.668;23.396;2023-06-24T07:34:04;95198.47;;;31.75;76.72
8059;BME280;4072;42.668;23.396;2023-06-24T07:36:32;95197.78;;;31.48;74.99
8059;BME280;4072;42.668;23.396;2023-06-24T07:39:02;95199.97;;;31.23;77.97
8059;BME280;4072;42.668;23.396;2023-06-24T07:41:32;95201.72;;;30.75;80.58
8059;BME280;4072;42.668;23.396;2023-06-24T07:44:00;95197.34;;;31.25;78.77
8059;BME280;4072;42.668;23.396;2023-06-24T07:46:28;95190.38;;;31.70;76.43
8059;BME280;4072;42.668;23.396;2023-06-24T07:48:57;95192.44;;;30.73;80.67
8059;BME280;4072;42.668;23.396;2023-06-24T07:51:25;95192.84;;;30.69;81.22
8059;BME280;4072;42.668;23.396;2023-06-24T07:53:54;95186.28;;;30.23;85.34
8059;BME280;4072;42.668;23.396;2023-06-24T07:56:23;95197.03;;;30.60;83.66
8059;BME280;4072;42.668;23.396;2023-06-24T07:58:52;95200.38;;;30.59;84.28
8059;BME280;4072;42.668;23.396;2023-06-24T08:01:21;95198.00;;;31.33;78.59
8059;BME280;4072;42.668;23.396;2023-06-24T08:03:49;95196.19;;;31.28;77.89
8059;BME280;4072;42.668;23.396;2023-06-24T08:06:17;95188.72;;;30.70;81.76
8059;BME280;4072;42.668;23.396;2023-06-24T08:08:46;95201.78;;;31.28;79.73
8059;BME280;4072;42.668;23.396;2023-06-24T08:11:14;95215.66;;;30.92;82.14
8059;BME280;4072;42.668;23.396;2023-06-24T08:13:44;95150.63;;;30.48;83.04
8059;BME280;4072;42.668;23.396;2023-06-24T08:16:15;95205.63;;;31.33;76.98
8059;BME280;4072;42.668;23.396;2023-06-24T08:18:43;95199.53;;;31.00;78.69
8059;BME280;4072;42.668;23.396;2023-06-24T08:21:11;95202.19;;;30.81;82.72
8059;BME280;4072;42.668;23.396;2023-06-24T08:23:40;95188.00;;;31.13;83.38
8059;BME280;4072;42.668;23.396;2023-06-24T08:26:09;95196.38;;;31.30;83.11
8059;BME280;4072;42.668;23.396;2023-06-24T08:28:46;95199.78;;;31.38;77.79
8059;BME280;4072;42.668;23.396;2023-06-24T08:31:14;95191.63;;;31.06;80.07
8059;BME280;4072;42.668;23.396;2023-06-24T08:33:43;95197.22;;;31.06;76.63
8059;BME280;4072;42.668;23.396;2023-06-24T08:36:13;95187.91;;;30.77;78.63
8059;BME280;4072;42.668;23.396;2023-06-24T08:38:41;95182.25;;;30.33;81.96
8059;BME280;4072;42.668;23.396;2023-06-24T08:41:10;95187.22;;;30.18;84.49
8059;BME280;4072;42.668;23.396;2023-06-24T08:43:38;95178.00;;;29.91;81.15
8059;BME280;4072;42.668;23.396;2023-06-24T08:46:08;95163.22;;;29.81;84.52
8059;BME280;4072;42.668;23.396;2023-06-24T08:48:39;95171.75;;;30.00;86.05
8059;BME280;4072;42.668;23.396;2023-06-24T08:51:09;95169.50;;;30.40;82.22
8059;BME280;4072;42.668;23.396;2023-06-24T08:53:38;95163.22;;;30.15;80.74
8059;BME280;4072;42.668;23.396;2023-06-24T08:56:11;95172.03;;;30.11;85.74
8059;BME280;4072;42.668;23.396;2023-06-24T08:58:39;95158.75;;;30.19;86.16
8059;BME280;4072;42.668;23.396;2023-06-24T09:01:10;95155.84;;;30.10;85.57
8059;BME280;4072;42.668;23.396;2023-06-24T09:03:39;95158.31;;;30.06;82.36
8059;BME280;4072;42.668;23.396;2023-06-24T09:06:07;95131.09;;;30.31;81.83
8059;BME280;4072;42.668;23.396;2023-06-24T09:08:36;95155.66;;;30.93;79.16
8059;BME280;4072;42.668;23.396;2023-06-24T09:11:08;95144.81;;;30.97;76.02
8059;BME280;4072;42.668;23.396;2023-06-24T09:13:37;95157.81;;;30.68;79.91
8059;BME280;4072;42.668;23.396;2023-06-24T09:16:13;95149.03;;;31.15;80.86
8059;BME280;4072;42.668;23.396;2023-06-24T09:18:47;95148.97;;;31.32;81.86
8059;BME280;4072;42.668;23.396;2023-06-24T09:21:22;95151.13;;;31.24;78.09
8059;BME280;4072;42.668;23.396;2023-06-24T09:23:55;95162.75;;;31.47;74.07
8059;BME280;4072;42.668;23.396;2023-06-24T09:26:24;95158.69;;;31.67;72.37
8059;BME280;4072;42.668;23.396;2023-06-24T09:28:52;95158.63;;;31.48;73.16
8059;BME280;4072;42.668;23.396;2023-06-24T09:31:23;95107.72;;;30.70;76.65
8059;BME280;4072;42.668;23.396;2023-06-24T09:33:56;95151.75;;;30.79;80.23
8059;BME280;4072;42.668;23.396;2023-06-24T09:36:26;95143.88;;;30.51;80.73
8059;BME280;4072;42.668;23.396;2023-06-24T09:38:55;95161.69;;;30.90;80.32
8059;BME280;4072;42.668;23.396;2023-06-24T09:41:24;95164.63;;;31.18;81.03
8059;BME280;4072;42.668;23.396;2023-06-24T09:43:57;95161.69;;;31.16;75.99
8059;BME280;4072;42.668;23.396;2023-06-24T09:46:27;95154.41;;;31.04;79.84
8059;BME280;4072;42.668;23.396;2023-06-24T09:48:57;95162.84;;;31.13;76.01
8059;BME280;4072;42.668;23.396;2023-06-24T09:51:25;95154.22;;;30.75;74.14
8059;BME280;4072;42.668;23.396;2023-06-24T09:53:54;95154.06;;;30.73;75.48
8059;BME280;4072;42.668;23.396;2023-06-24T09:56:24;95150.25;;;30.95;74.44
8059;BME280;4072;42.668;23.396;2023-06-24T09:58:52;95160.09;;;30.96;71.91
8059;BME280;4072;42.668;23.396;2023-06-24T10:01:21;95147.97;;;30.84;74.05
8059;BME280;4072;42.668;23.396;2023-06-24T10:03:53;95153.16;;;30.71;75.43
8059;BME280;4072;42.668;23.396;2023-06-24T10:06:22;95132.31;;;30.54;77.04
8059;BME280;4072;42.668;23.396;2023-06-24T10:08:50;95134.84;;;30.60;75.39
8059;BME280;4072;42.668;23.396;2023-06-24T10:11:19;95131.53;;;31.41;70.41
8059;BME280;4072;42.668;23.396;2023-06-24T10:13:47;95131.28;;;31.56;73.91
8059;BME280;4072;42.668;23.396;2023-06-24T10:16:15;95131.56;;;31.60;72.94
8059;BME280;4072;42.668;23.396;2023-06-24T10:18:44;95128.78;;;31.60;69.61
8059;BME280;4072;42.668;23.396;2023-06-24T10:21:15;95122.63;;;31.71;70.19
8059;BME280;4072;42.668;23.396;2023-06-24T10:23:52;95119.53;;;31.67;67.24
8059;BME280;4072;42.668;23.396;2023-06-24T10:26:25;95082.53;;;31.40;68.23
8059;BME280;4072;42.668;23.396;2023-06-24T10:29:09;95100.94;;;31.43;70.82
8059;BME280;4072;42.668;23.396;2023-06-24T10:31:53;95096.09;;;31.17;73.30
8059;BME280;4072;42.668;23.396;2023-06-24T10:34:31;95091.47;;;31.03;70.25
8059;BME280;4072;42.668;23.396;2023-06-24T10:37:03;95084.53;;;30.94;73.40
8059;BME280;4072;42.668;23.396;2023-06-24T10:39:39;95079.66;;;30.95;76.67
8059;BME280;4072;42.668;23.396;2023-06-24T10:42:40;95076.94;;;31.04;72.55
8059;BME280;4072;42.668;23.396;2023-06-24T10:45:18;95078.38;;;31.05;72.12
8059;BME280;4072;42.668;23.396;2023-06-24T10:47:48;95070.94;;;31.17;73.08
8059;BME280;4072;42.668;23.396;2023-06-24T10:50:19;95063.09;;;31.42;68.61
8059;BME280;4072;42.668;23.396;2023-06-24T10:52:50;95060.94;;;31.50;68.00
8059;BME280;4072;42.668;23.396;2023-06-24T10:55:22;95059.09;;;31.26;71.62
8059;BME280;4072;42.668;23.396;2023-06-24T10:57:51;95050.84;;;31.38;70.83
8059;BME280;4072;42.668;23.396;2023-06-24T11:00:20;95027.38;;;31.50;65.68
8059;BME280;4072;42.668;23.396;2023-06-24T11:02:49;95054.59;;;31.69;67.26
8059;BME280;4072;42.668;23.396;2023-06-24T11:05:18;95049.28;;;31.44;68.59
8059;BME280;4072;42.668;23.396;2023-06-24T11:07:47;95050.59;;;31.43;67.83
8059;BME280;4072;42.668;23.396;2023-06-24T11:10:19;95047.03;;;31.33;63.92
8059;BME280;4072;42.668;23.396;2023-06-24T11:12:47;95051.13;;;31.32;67.43
8059;BME280;4072;42.668;23.396;2023-06-24T11:15:15;95042.22;;;31.43;66.34
8059;BME280;4072;42.668;23.396;2023-06-24T11:17:45;95053.81;;;31.95;64.46
8059;BME280;4072;42.668;23.396;2023-06-24T11:20:14;95049.78;;;32.45;60.13
8059;BME280;4072;42.668;23.396;2023-06-24T11:22:43;95046.13;;;32.24;56.74
8059;BME280;4072;42.668;23.396;2023-06-24T11:25:14;95051.81;;;31.78;59.39
8059;BME280;4072;42.668;23.396;2023-06-24T11:27:46;95056.81;;;31.51;61.30
8059;BME280;4072;42.668;23.396;2023-06-24T11:30:16;95045.63;;;31.70;61.20
8059;BME280;4072;42.668;23.396;2023-06-24T11:32:45;95050.94;;;31.76;58.78
8059;BME280;4072;42.668;23.396;2023-06-24T11:35:15;94988.13;;;31.86;58.35
8059;BME280;4072;42.668;23.396;2023-06-24T11:37:45;95053.06;;;32.32;56.83
8059;BME280;4072;42.668;23.396;2023-06-24T11:40:17;95056.13;;;32.55;55.67
8059;BME280;4072;42.668;23.396;2023-06-24T11:42:48;95049.22;;;32.37;51.89
8059;BME280;4072;42.668;23.396;2023-06-24T11:45:20;95033.47;;;32.04;56.01
8059;BME280;4072;42.668;23.396;2023-06-24T11:47:49;95006.94;;;31.76;55.31
8059;BME280;4072;42.668;23.396;2023-06-24T11:50:27;95040.53;;;32.14;54.93
8059;BME280;4072;42.668;23.396;2023-06-24T11:52:55;95023.00;;;31.85;55.47
8059;BME280;4072;42.668;23.396;2023-06-24T11:55:24;95016.66;;;32.04;56.33
8059;BME280;4072;42.668;23.396;2023-06-24T11:57:58;95012.59;;;32.73;55.39
8059;BME280;4072;42.668;23.396;2023-06-24T12:00:29;95010.75;;;32.47;54.79
8059;BME280;4072;42.668;23.396;2023-06-24T12:03:01;95005.59;;;32.53;53.54
8059;BME280;4072;42.668;23.396;2023-06-24T12:05:33;95004.34;;;32.75;54.95
8059;BME280;4072;42.668;23.396;2023-06-24T12:08:05;94986.41;;;32.99;52.55
8059;BME280;4072;42.668;23.396;2023-06-24T12:10:34;94983.56;;;33.09;52.77
8059;BME280;4072;42.668;23.396;2023-06-24T12:13:05;94925.13;;;32.44;54.67
8059;BME280;4072;42.668;23.396;2023-06-24T12:15:36;94976.78;;;32.62;53.13
8059;BME280;4072;42.668;23.396;2023-06-24T12:18:04;94941.97;;;32.35;52.77
8059;BME280;4072;42.668;23.396;2023-06-24T12:20:33;94975.41;;;32.33;56.54
8059;BME280;4072;42.668;23.396;2023-06-24T12:23:05;94920.97;;;31.86;58.14
8059;BME280;4072;42.668;23.396;2023-06-24T12:25:33;94979.56;;;32.03;58.44
8059;BME280;4072;42.668;23.396;2023-06-24T12:28:03;94983.22;;;31.58;59.25
8059;BME280;4072;42.668;23.396;2023-06-24T12:30:32;94983.22;;;31.58;61.94
8059;BME280;4072;42.668;23.396;2023-06-24T12:33:01;94970.56;;;31.76;61.03
8059;BME280;4072;42.668;23.396;2023-06-24T12:35:29;94964.69;;;31.72;59.43
8059;BME280;4072;42.668;23.396;2023-06-24T12:37:58;94982.81;;;31.81;60.69
8059;BME280;4072;42.668;23.396;2023-06-24T12:40:26;94991.16;;;31.71;60.96
8059;BME280;4072;42.668;23.396;2023-06-24T12:42:55;94976.94;;;31.22;64.04
8059;BME280;4072;42.668;23.396;2023-06-24T12:45:26;95004.84;;;31.48;64.09
8059;BME280;4072;42.668;23.396;2023-06-24T12:47:54;94952.22;;;31.18;62.76
8059;BME280;4072;42.668;23.396;2023-06-24T12:50:23;95022.94;;;31.47;65.05
8059;BME280;4072;42.668;23.396;2023-06-24T12:52:51;95031.47;;;31.49;67.15
8059;BME280;4072;42.668;23.396;2023-06-24T12:55:19;95036.31;;;31.39;68.07
8059;BME280;4072;42.668;23.396;2023-06-24T12:57:48;95043.78;;;31.27;67.24
8059;BME280;4072;42.668;23.396;2023-06-24T13:00:19;95035.44;;;31.10;67.36
8059;BME280;4072;42.668;23.396;2023-06-24T13:02:50;95038.72;;;31.16;69.91
8059;BME280;4072;42.668;23.396;2023-06-24T13:05:19;95022.75;;;30.90;66.54
8059;BME280;4072;42.668;23.396;2023-06-24T13:07:47;95019.69;;;30.96;68.21
8059;BME280;4072;42.668;23.396;2023-06-24T13:10:16;95012.47;;;30.66;72.32
8059;BME280;4072;42.668;23.396;2023-06-24T13:12:44;95000.41;;;30.90;72.37
8059;BME280;4072;42.668;23.396;2023-06-24T13:15:17;94994.94;;;31.28;67.70
8059;BME280;4072;42.668;23.396;2023-06-24T13:17:46;94980.84;;;31.45;68.62
8059;BME280;4072;42.668;23.396;2023-06-24T13:20:16;94987.94;;;31.65;70.14
8059;BME280;4072;42.668;23.396;2023-06-24T13:22:44;94985.88;;;31.75;69.67
8059;BME280;4072;42.668;23.396;2023-06-24T13:25:13;94954.22;;;31.54;69.58